This is the latest recevied weather packets stored in our database for station/object VK2BLR. If no packets are shown the sender has not sent any weather packets the latest 10 day(s).
| Time | Temp. | Humidity | Pressure | Rain* | Wind** | Luminosity | Snow |
|---|---|---|---|---|---|---|---|
| 1777341979 | 26.67° C | 27% | 1024 hPa | 0 mm | - | - | - |
| 1777341081 | 26.67° C | 28% | 1024.2 hPa | 0 mm | - | - | - |
| 1777340179 | 26.67° C | 29% | 1024.3 hPa | 0 mm | - | - | - |
| 1777339281 | 26.67° C | 30% | 1024.4 hPa | 0 mm | - | - | - |
| 1777338380 | 26.67° C | 30% | 1024.6 hPa | 0 mm | - | - | - |
| 1777337480 | 26.11° C | 31% | 1024.7 hPa | 0 mm | - | - | - |
| 1777336579 | 26.11° C | 33% | 1024.7 hPa | 0 mm | - | - | - |
| 1777335680 | 25.56° C | 33% | 1024.8 hPa | 0 mm | - | - | - |
| 1777334780 | 24.44° C | 35% | 1024.9 hPa | 0 mm | - | - | - |
| 1777333879 | 23.33° C | 38% | 1024.7 hPa | 0 mm | - | - | - |
| 1777332980 | 22.78° C | 40% | 1024.6 hPa | 0 mm | - | - | - |
| 1777332081 | 21.67° C | 45% | 1024.5 hPa | 0 mm | - | - | - |
| 1777331181 | 21.11° C | 45% | 1024.5 hPa | 0 mm | - | - | - |
| 1777330281 | 21.11° C | 47% | 1024.5 hPa | 0 mm | - | - | - |
| 1777329381 | 21.11° C | 48% | 1024.5 hPa | 0 mm | - | - | - |
| 1777328480 | 20.56° C | 50% | 1024.3 hPa | 0 mm | - | - | - |
| 1777327580 | 19.44° C | 52% | 1023.8 hPa | 0 mm | - | - | - |
| 1777326680 | 18.33° C | 55% | 1023.8 hPa | 0 mm | - | - | - |
| 1777325781 | 16.67° C | 63% | 1023.5 hPa | 0 mm | - | - | - |
| 1777324880 | 14.44° C | 66% | 1023.4 hPa | 0 mm | - | - | - |
| 1777323980 | 13.89° C | 64% | 1023.4 hPa | 0 mm | - | - | - |
| 1777323079 | 14.44° C | 63% | 1023.1 hPa | 0 mm | - | - | - |
| 1777322180 | 15° C | 63% | 1022.7 hPa | 0 mm | - | - | - |
| 1777321280 | 15° C | 63% | 1022.7 hPa | 0 mm | - | - | - |
| 1777320379 | 15° C | 63% | 1022.5 hPa | 0 mm | - | - | - |
* Rain latest hour (hover to see other rain measurements)
** Current wind speed in m/s (hover to see current wind gust speed)